Richmond, Kansas
Current Conditions -  °F | °C
As of 3:53 AM on Friday 21 Nov 2014 (Local Time) from KIXD Reporting Station
Clear Clear  
Wind Chill: 15°   Ceiling: Unl
Heat Index: 25°   Visibility: 10mi
Dew Point: 17°   Wind: 10mph
Humidity: 72%   Direction: 80°E
Pressure: 30.22"   Gusts: NA
Location:  38.4°N, 95.25°W
Report Text: KIXD 210953Z AUTO 08009KT 10SM CLR M04/M08 A3022 RMK AO2 SLP242 T10391083
Loading
Personal Weather Stations






























Interactive Weather Map New forecast layout! Learn more

10-Day Weather Forecast

Advertisements
Track Severe Weather on mobile